Time;durP1;ratioP1;P1;durP2;ratioP2;P2;SDS_P1;SDS_P2;PMS_P1;PMS_P2;Temp;Humidity;BMP_temperature;BMP_pressure;BME280_temperature;BME280_humidity;BME280_pressure;Samples;Min_cycle;Max_cycle;Signal;HPM_P1;HPM_P2
2022/04/26 03:37:19;;;;;;;14.73;8.60;;;;;;;6.80;88.61;100473.55;1735947;82;21041;-74
2022/04/26 03:39:47;;;;;;;13.80;9.17;;;;;;;6.80;88.54;100476.16;1728293;82;21020;-73
2022/04/26 03:42:15;;;;;;;17.27;9.47;;;;;;;6.78;88.43;100481.39;1692463;83;21107;-74
2022/04/26 03:44:42;;;;;;;14.73;8.93;;;;;;;6.77;88.36;100482.28;1728426;82;21131;-73
2022/04/26 03:47:09;;;;;;;13.80;9.37;;;;;;;6.77;88.19;100489.25;1727316;82;21019;-73
2022/04/26 03:49:36;;;;;;;16.53;10.33;;;;;;;6.77;88.20;100488.80;1718807;82;21036;-78
2022/04/26 03:52:04;;;;;;;16.70;10.17;;;;;;;6.77;88.09;100497.06;1727535;82;21118;-81
2022/04/26 03:54:31;;;;;;;16.33;10.20;;;;;;;6.78;88.17;100498.31;1721122;82;21534;-72
2022/04/26 03:56:58;;;;;;;14.70;9.50;;;;;;;6.76;88.22;100497.52;1723874;82;21899;-82
2022/04/26 03:59:26;;;;;;;12.80;9.20;;;;;;;6.73;88.17;100497.55;1711825;82;22090;-75
2022/04/26 04:01:53;;;;;;;15.03;9.70;;;;;;;6.72;88.09;100504.11;1728130;82;21020;-81
2022/04/26 04:04:20;;;;;;;10.73;8.37;;;;;;;6.69;88.10;100501.97;1721228;82;21135;-76
2022/04/26 04:06:47;;;;;;;12.27;8.77;;;;;;;6.66;88.05;100501.17;1717657;82;21091;-74
2022/04/26 04:09:14;;;;;;;11.70;8.53;;;;;;;6.66;88.15;100512.90;1721793;82;21482;-74
2022/04/26 04:11:41;;;;;;;12.10;9.23;;;;;;;6.66;88.17;100510.30;1727564;82;21001;-80
2022/04/26 04:14:07;;;;;;;14.00;8.43;;;;;;;6.67;88.24;100513.30;1729080;82;21044;-74
2022/04/26 04:16:34;;;;;;;12.80;9.20;;;;;;;6.67;88.11;100510.70;1728144;82;21530;-83
2022/04/26 04:19:21;;;;;;;15.83;9.67;;;;;;;6.66;88.06;100513.75;1727171;82;21102;-73
2022/04/26 04:21:51;;;;;;;11.77;8.53;;;;;;;6.66;88.17;100512.45;1722193;82;21977;-74
2022/04/26 04:24:19;;;;;;;11.90;8.70;;;;;;;6.67;88.21;100518.06;1727086;82;21146;-73
2022/04/26 04:26:47;;;;;;;11.70;8.40;;;;;;;6.68;88.17;100517.20;1724661;82;21051;-72
2022/04/26 04:29:15;;;;;;;12.33;8.03;;;;;;;6.69;88.23;100512.39;1737267;82;21486;-73
2022/04/26 04:31:43;;;;;;;14.10;9.03;;;;;;;6.70;88.25;100516.70;1717488;82;21241;-79
2022/04/26 04:34:10;;;;;;;15.53;8.80;;;;;;;6.70;88.25;100517.14;1729648;82;21100;-84
2022/04/26 04:36:38;;;;;;;12.97;7.90;;;;;;;6.71;88.15;100521.48;1721109;82;21504;-73
2022/04/26 04:39:06;;;;;;;11.50;8.00;;;;;;;6.73;88.17;100514.93;1725611;82;21032;-82
2022/04/26 04:41:38;;;;;;;13.70;8.10;;;;;;;6.75;88.23;100530.95;1707331;82;28404;-76
2022/04/26 04:44:07;;;;;;;11.10;8.08;;;;;;;6.77;88.28;100526.58;1725916;82;21095;-83
2022/04/26 04:46:34;;;;;;;12.73;8.27;;;;;;;6.79;88.17;100528.71;1732602;82;21128;-73
2022/04/26 04:49:02;;;;;;;13.17;8.37;;;;;;;6.83;88.25;100527.75;1729308;82;21005;-73
2022/04/26 04:51:29;;;;;;;11.90;7.90;;;;;;;6.85;88.28;100529.89;1729495;82;21017;-75
2022/04/26 04:53:57;;;;;;;17.20;10.70;;;;;;;6.90;88.27;100538.89;1701561;82;21588;-77
2022/04/26 04:56:29;;;;;;;16.60;10.73;;;;;;;6.93;88.06;100541.47;1704876;82;21011;-73
2022/04/26 04:58:54;;;;;;;15.63;9.90;;;;;;;6.95;88.05;100544.88;1700869;82;21136;-83
2022/04/26 05:01:21;;;;;;;15.40;9.80;;;;;;;6.98;88.15;100551.33;1729032;82;21084;-73
2022/04/26 05:03:49;;;;;;;12.93;8.63;;;;;;;7.04;88.32;100555.14;1696436;82;21007;-76
2022/04/26 05:06:16;;;;;;;12.33;8.60;;;;;;;7.07;88.36;100557.69;1718006;82;21486;-74
2022/04/26 05:08:45;;;;;;;12.40;8.47;;;;;;;7.09;88.20;100561.55;1719426;82;21056;-73
2022/04/26 05:11:12;;;;;;;10.80;7.83;;;;;;;7.11;88.22;100562.38;1714692;82;21561;-74
2022/04/26 05:13:39;;;;;;;13.40;8.50;;;;;;;7.13;88.08;100569.73;1701284;84;21521;-75
2022/04/26 05:16:08;;;;;;;12.57;8.47;;;;;;;7.15;88.09;100567.52;1700918;83;20997;-75
2022/04/26 05:18:37;;;;;;;12.37;8.83;;;;;;;7.22;88.08;100577.81;1697918;83;21076;-75
2022/04/26 05:21:10;;;;;;;12.13;9.00;;;;;;;7.24;87.96;100577.34;1718014;82;21497;-75
2022/04/26 05:26:25;;;;;;;9.13;7.37;;;;;;;7.26;87.89;100580.34;1720096;82;21566;-76
2022/04/26 05:28:55;;;;;;;12.77;7.20;;;;;;;7.32;87.85;100581.95;1715613;82;21070;-75
2022/04/26 05:31:22;;;;;;;11.57;7.90;;;;;;;7.37;87.92;100578.36;1711525;82;21048;-75
2022/04/26 05:33:49;;;;;;;11.63;7.93;;;;;;;7.41;87.78;100580.90;1723549;82;21000;-75
2022/04/26 05:36:15;;;;;;;12.47;8.50;;;;;;;7.43;87.64;100585.61;1729454;82;21029;-75
2022/04/26 05:38:44;;;;;;;12.40;7.73;;;;;;;7.48;87.58;100585.08;1723323;82;21032;-75
2022/04/26 05:41:13;;;;;;;13.87;8.13;;;;;;;7.50;87.30;100585.91;1713448;82;21378;-75
2022/04/26 05:43:40;;;;;;;10.93;7.57;;;;;;;7.53;87.17;100587.14;1707730;84;21027;-75
2022/04/26 05:46:12;;;;;;;12.40;7.70;;;;;;;7.58;87.29;100589.22;1709943;83;21142;-75
2022/04/26 05:48:43;;;;;;;9.90;7.00;;;;;;;7.63;87.37;100587.37;1711853;83;21270;-75
2022/04/26 05:51:09;;;;;;;;;;;;;;;7.66;87.03;100583.38;1712246;83;21055;-77
2022/04/26 05:53:36;;;;;;;11.60;7.77;;;;;;;7.72;87.10;100588.46;1711482;83;20196;-84
2022/04/26 05:56:08;;;;;;;12.47;8.13;;;;;;;7.77;87.04;100585.76;1708515;83;21075;-83
2022/04/26 05:58:35;;;;;;;17.47;9.90;;;;;;;7.83;86.97;100580.39;1710498;83;21075;-76
2022/04/26 06:01:03;;;;;;;14.43;8.40;;;;;;;7.86;86.58;100582.08;1713123;83;21522;-78
2022/04/26 06:03:30;;;;;;;18.90;10.77;;;;;;;7.87;86.30;100582.06;1706465;83;21059;-81
2022/04/26 06:05:57;;;;;;;15.37;9.10;;;;;;;7.91;86.41;100580.23;1706851;83;21555;-78
2022/04/26 06:08:24;;;;;;;11.13;8.20;;;;;;;7.98;86.51;100583.97;1710944;83;21150;-76
2022/04/26 06:10:51;;;;;;;12.17;8.10;;;;;;;8.09;86.68;100588.91;1709734;83;21134;-76
2022/04/26 06:13:18;;;;;;;11.77;8.17;;;;;;;8.18;86.26;100590.02;1704285;83;21102;-77
2022/04/26 06:15:45;;;;;;;12.67;8.33;;;;;;;8.21;85.92;100589.94;1708944;83;22043;-76
2022/04/26 06:18:12;;;;;;;9.90;8.30;;;;;;;8.22;85.51;100597.32;1708002;83;21055;-75
2022/04/26 06:20:38;;;;;;;11.10;7.83;;;;;;;8.19;85.22;100590.41;1706589;83;21016;-76
2022/04/26 06:23:05;;;;;;;13.97;9.47;;;;;;;8.23;85.36;100593.80;1709747;83;21166;-74
2022/04/26 06:25:38;;;;;;;14.27;10.00;;;;;;;8.30;85.53;100588.85;1708388;83;21113;-75
2022/04/26 06:28:09;;;;;;;14.67;9.77;;;;;;;8.37;85.31;100592.16;1710690;82;21067;-76
2022/04/26 06:30:38;;;;;;;11.13;7.53;;;;;;;8.42;85.39;100590.33;1708801;83;21591;-77
2022/04/26 06:33:06;;;;;;;9.20;7.53;;;;;;;8.49;85.24;100601.05;1713499;83;21653;-75
2022/04/26 06:35:33;;;;;;;11.23;7.90;;;;;;;8.57;85.26;100595.63;1709315;83;21643;-74
2022/04/26 06:38:00;;;;;;;12.00;8.90;;;;;;;8.63;84.98;100598.93;1712447;83;21954;-75
2022/04/26 06:40:27;;;;;;;10.17;7.30;;;;;;;8.69;84.87;100596.61;1709321;83;21036;-74
2022/04/26 06:42:54;;;;;;;12.63;7.47;;;;;;;8.76;84.87;100594.26;1709313;83;21493;-75
2022/04/26 06:45:21;;;;;;;11.13;7.93;;;;;;;8.90;85.50;100592.13;1709971;83;21698;-75
2022/04/26 06:47:49;;;;;;;10.83;7.63;;;;;;;9.07;85.29;100596.89;1707719;83;21036;-75
2022/04/26 06:50:18;;;;;;;11.10;7.23;;;;;;;9.10;84.64;100592.87;1709212;83;21130;-78
2022/04/26 06:52:45;;;;;;;10.90;7.83;;;;;;;9.13;84.10;100593.25;1709757;83;21023;-76
2022/04/26 06:55:12;;;;;;;11.63;7.37;;;;;;;9.20;84.32;100591.30;1710199;83;21064;-73
2022/04/26 06:57:40;;;;;;;11.75;7.22;;;;;;;9.30;84.29;100598.00;1727719;82;21033;-75
2022/04/26 07:00:09;;;;;;;9.23;6.80;;;;;;;9.35;84.20;100600.89;1725874;82;21659;-83
2022/04/26 07:02:36;;;;;;;10.83;7.27;;;;;;;9.41;83.83;100597.23;1727849;82;21114;-75
2022/04/26 07:05:04;;;;;;;12.90;8.10;;;;;;;9.49;83.96;100598.33;1713215;82;21116;-74
2022/04/26 07:07:31;;;;;;;11.87;7.37;;;;;;;9.54;83.40;100603.83;1697399;82;21076;-75
2022/04/26 07:09:58;;;;;;;10.45;7.10;;;;;;;9.55;83.22;100602.92;1679422;84;21533;-75
2022/04/26 07:12:25;;;;;;;10.27;7.27;;;;;;;9.59;83.09;100601.94;1682261;82;21275;-74
2022/04/26 07:14:52;;;;;;;11.73;7.83;;;;;;;9.61;82.80;100599.27;1686219;83;21109;-75
2022/04/26 07:17:19;;;;;;;10.87;7.30;;;;;;;9.63;82.79;100600.53;1693248;83;20920;-77
2022/04/26 07:19:46;;;;;;;10.48;7.25;;;;;;;9.67;82.76;100599.10;1713385;82;20983;-75
2022/04/26 07:22:13;;;;;;;13.47;8.03;;;;;;;9.76;82.86;100604.05;1694542;84;21043;-75
2022/04/26 07:24:41;;;;;;;10.95;7.28;;;;;;;9.83;82.63;100612.10;1695016;83;21514;-75
2022/04/26 07:27:08;;;;;;;13.75;9.08;;;;;;;9.88;82.30;100613.73;1719925;82;21112;-74
2022/04/26 07:29:35;;;;;;;18.70;11.63;;;;;;;9.88;82.11;100614.59;1721144;82;21267;-74
2022/04/26 07:32:03;;;;;;;11.88;8.23;;;;;;;9.95;82.04;100620.48;1727772;82;21103;-77
2022/04/26 07:34:30;;;;;;;12.13;8.37;;;;;;;10.00;81.83;100619.47;1712693;82;21036;-77
2022/04/26 07:37:04;;;;;;;11.60;8.43;;;;;;;10.08;81.68;100619.66;1725818;82;21107;-76
2022/04/26 07:39:34;;;;;;;10.95;7.83;;;;;;;10.14;81.53;100623.38;1717346;82;21192;-74
2022/04/26 07:42:03;;;;;;;9.23;6.97;;;;;;;10.23;81.66;100625.73;1724884;82;21352;-75
2022/04/26 07:44:31;;;;;;;9.20;7.00;;;;;;;10.36;81.60;100623.13;1735289;82;20945;-74
2022/04/26 07:46:59;;;;;;;11.15;7.47;;;;;;;10.42;81.03;100629.51;1723186;82;21683;-74
2022/04/26 07:49:27;;;;;;;9.40;6.45;;;;;;;10.45;80.73;100626.78;1712038;82;21138;-74
2022/04/26 07:51:54;;;;;;;9.60;7.22;;;;;;;10.49;80.48;100624.91;1699098;82;21833;-73
2022/04/26 07:54:22;;;;;;;13.10;7.97;;;;;;;10.54;80.47;100627.39;1693865;83;21054;-74
2022/04/26 07:56:49;;;;;;;10.90;7.37;;;;;;;10.58;80.30;100633.77;1717261;82;21473;-73
2022/04/26 07:59:16;;;;;;;18.87;11.40;;;;;;;10.67;80.49;100636.56;1708404;82;21604;-73
2022/04/26 08:01:43;;;;;;;9.70;7.75;;;;;;;10.73;80.21;100643.36;1682166;82;21285;-76
2022/04/26 08:04:10;;;;;;;12.00;7.95;;;;;;;10.78;80.32;100643.61;1686052;82;21113;-74
2022/04/26 08:06:37;;;;;;;13.48;8.55;;;;;;;10.90;80.19;100643.64;1678128;82;21306;-73
2022/04/26 08:09:04;;;;;;;10.88;6.80;;;;;;;11.03;80.23;100646.67;1684398;82;21131;-76
2022/04/26 08:11:31;;;;;;;7.92;6.40;;;;;;;11.18;80.10;100646.61;1698817;82;21041;-73
2022/04/26 08:13:58;;;;;;;9.75;7.90;;;;;;;11.30;79.72;100650.09;1716843;82;21579;-76
2022/04/26 08:16:25;;;;;;;10.20;6.15;;;;;;;11.34;79.18;100652.56;1724683;82;21191;-74
2022/04/26 08:18:52;;;;;;;8.15;6.10;;;;;;;11.37;78.75;100656.84;1719948;82;20996;-73
2022/04/26 08:21:19;;;;;;;10.35;6.55;;;;;;;11.45;78.73;100653.95;1715773;82;21032;-73
2022/04/26 08:29:19;;;;;;;7.60;5.67;;;;;;;11.65;78.18;100658.45;1726663;82;21153;-80
2022/04/26 08:31:48;;;;;;;7.25;5.95;;;;;;;11.72;77.86;100663.86;1723317;82;21086;-80
2022/04/26 08:34:15;;;;;;;9.70;6.80;;;;;;;11.76;77.72;100662.38;1724391;82;21075;-81
2022/04/26 08:36:43;;;;;;;9.45;6.42;;;;;;;11.87;78.06;100663.79;1724083;82;22228;-83
2022/04/26 08:39:11;;;;;;;9.23;7.20;;;;;;;11.98;77.97;100670.80;1714452;82;21031;-75
2022/04/26 08:41:38;;;;;;;7.65;6.70;;;;;;;12.08;77.84;100668.66;1720883;82;21097;-74
2022/04/26 08:44:10;;;;;;;8.43;5.90;;;;;;;12.08;77.13;100669.50;1724255;82;21639;-74
2022/04/26 08:52:12;;;;;;;9.58;7.20;;;;;;;12.19;76.57;100679.17;1715178;82;20989;-74
2022/04/26 08:54:38;;;;;;;9.88;6.97;;;;;;;12.21;76.22;100680.41;1713823;82;21112;-74
2022/04/26 08:57:06;;;;;;;8.73;7.47;;;;;;;12.19;76.28;100679.17;1715045;82;21020;-75
2022/04/26 08:59:33;;;;;;;13.50;9.73;;;;;;;12.23;76.15;100675.95;1713296;82;21085;-77
2022/04/26 09:02:21;;;;;;;8.38;6.30;;;;;;;12.28;76.34;100681.89;1719413;82;21047;-83
2022/04/26 09:04:52;;;;;;;10.00;7.05;;;;;;;12.38;76.42;100681.05;1715018;82;21012;-84
2022/04/26 09:07:39;;;;;;;8.45;5.40;;;;;;;12.50;76.29;100674.84;1714026;83;21149;-73
2022/04/26 09:10:13;;;;;;;7.78;5.92;;;;;;;12.59;76.24;100680.66;1718377;82;21500;-75
2022/04/26 09:13:09;;;;;;;7.95;5.90;;;;;;;12.70;75.97;100678.44;1713905;82;21023;-75
2022/04/26 09:15:51;;;;;;;7.65;6.20;;;;;;;12.78;75.70;100676.81;1713627;82;21001;-74
2022/04/26 09:18:27;;;;;;;6.65;5.83;;;;;;;12.81;74.75;100684.56;1717533;82;21047;-74
2022/04/26 09:21:10;;;;;;;7.90;5.97;;;;;;;12.91;75.32;100682.80;1713125;82;21920;-73
2022/04/26 09:23:41;;;;;;;8.05;6.25;;;;;;;13.00;74.75;100681.99;1714261;82;21055;-73
2022/04/26 09:26:11;;;;;;;11.60;7.60;;;;;;;13.08;74.64;100690.41;1718402;82;21178;-74
2022/04/26 09:28:46;;;;;;;12.63;9.80;;;;;;;13.12;74.25;100691.55;1714281;82;21453;-74
2022/04/26 09:31:28;;;;;;;8.98;6.70;;;;;;;13.12;73.94;100688.91;1709569;82;21375;-82
2022/04/26 09:34:05;;;;;;;8.38;5.92;;;;;;;13.17;74.10;100688.27;1714261;82;22449;-74
2022/04/26 09:36:37;;;;;;;8.78;6.45;;;;;;;13.25;73.50;100692.35;1715846;82;21568;-75
2022/04/26 09:39:07;;;;;;;9.00;6.10;;;;;;;13.29;73.32;100692.62;1680533;84;20976;-74
2022/04/26 09:41:33;;;;;;;9.25;6.17;;;;;;;13.27;73.14;100685.25;1715509;82;21529;-74
2022/04/26 09:44:09;;;;;;;8.25;6.03;;;;;;;13.30;73.18;100686.00;1718484;82;21452;-75
2022/04/26 09:46:48;;;;;;;6.42;5.45;;;;;;;13.43;73.41;100693.34;1715900;82;21073;-74
2022/04/26 09:49:18;;;;;;;9.73;7.65;;;;;;;13.57;73.54;100686.52;1715519;82;21497;-74
2022/04/26 09:51:47;;;;;;;7.53;6.42;;;;;;;13.79;73.35;100686.41;1713079;82;21021;-74
2022/04/26 09:54:14;;;;;;;7.70;6.62;;;;;;;13.92;72.82;100685.86;1710714;82;21106;-75
2022/04/26 09:56:45;;;;;;;7.20;6.12;;;;;;;13.94;72.32;100680.03;1711632;82;21027;-74
2022/04/26 09:59:28;;;;;;;10.13;6.67;;;;;;;14.02;72.44;100690.64;1714473;82;22012;-75
2022/04/26 10:01:58;;;;;;;6.62;5.92;;;;;;;14.09;71.74;100690.34;1676455;84;21051;-74
2022/04/26 10:04:31;;;;;;;7.50;6.00;;;;;;;14.19;71.38;100691.59;1711114;82;28703;-76
2022/04/26 10:07:05;;;;;;;10.58;7.45;;;;;;;14.26;71.25;100692.56;1712651;82;21596;-83
2022/04/26 10:09:34;;;;;;;10.65;6.85;;;;;;;14.31;70.96;100681.80;1715500;82;21390;-74
2022/04/26 10:12:03;;;;;;;8.83;7.22;;;;;;;14.36;70.91;100686.40;1713503;83;21131;-74
2022/04/26 10:14:32;;;;;;;7.12;5.97;;;;;;;14.41;71.07;100690.11;1716740;82;21055;-74
2022/04/26 10:17:00;;;;;;;8.80;6.40;;;;;;;14.61;70.83;100682.60;1712398;83;21032;-74
2022/04/26 10:19:38;;;;;;;8.08;6.03;;;;;;;14.86;71.10;100689.68;1714929;82;21023;-74
2022/04/26 10:22:11;;;;;;;8.25;6.83;;;;;;;14.95;70.76;100681.28;1713382;82;21648;-74
2022/04/26 10:24:40;;;;;;;7.45;6.00;;;;;;;14.86;69.70;100680.91;1713514;82;21107;-74
2022/04/26 10:27:25;;;;;;;7.33;6.30;;;;;;;14.84;69.45;100679.66;1719719;82;20951;-79
2022/04/26 10:29:53;;;;;;;6.95;6.08;;;;;;;15.07;69.71;100678.95;1716006;82;21005;-74
2022/04/26 10:32:38;;;;;;;7.53;6.28;;;;;;;15.35;69.71;100676.61;1716012;82;21414;-81
2022/04/26 10:35:26;;;;;;;8.50;6.22;;;;;;;15.70;69.64;100673.05;1714894;82;21115;-74
2022/04/26 10:38:12;;;;;;;7.60;6.37;;;;;;;16.12;69.11;100674.27;1714439;83;21203;-74
2022/04/26 10:41:08;;;;;;;7.33;6.62;;;;;;;16.15;68.33;100679.38;1715897;82;21076;-74
2022/04/26 10:43:36;;;;;;;7.92;6.37;;;;;;;15.91;67.26;100682.45;1714239;82;21057;-74
2022/04/26 10:46:15;;;;;;;7.35;6.10;;;;;;;15.62;67.16;100678.23;1715441;82;21003;-82
2022/04/26 10:48:43;;;;;;;7.45;6.20;;;;;;;15.79;67.85;100673.86;1713037;82;21016;-74
2022/04/26 10:51:34;;;;;;;9.88;6.28;;;;;;;16.31;68.52;100671.45;1712908;82;21116;-74
2022/04/26 10:54:04;;;;;;;7.75;5.72;;;;;;;16.85;68.06;100673.19;1716785;82;21076;-74
2022/04/26 10:56:35;;;;;;;6.70;6.00;;;;;;;17.25;67.07;100673.48;1717049;82;20997;-74
2022/04/26 10:59:13;;;;;;;6.83;6.17;;;;;;;17.59;66.13;100674.42;1714988;83;21135;-74
2022/04/26 11:01:43;;;;;;;8.95;7.35;;;;;;;17.92;65.70;100669.80;1710717;82;21486;-75
2022/04/26 11:04:15;;;;;;;7.83;6.70;;;;;;;18.23;65.13;100671.34;1715105;82;21621;-77
2022/04/26 11:06:42;;;;;;;8.83;6.47;;;;;;;18.48;64.42;100667.48;1717335;82;20993;-74
2022/04/26 11:09:14;;;;;;;7.12;6.42;;;;;;;18.51;63.70;100670.38;1715583;82;21083;-74
2022/04/26 11:11:51;;;;;;;6.67;5.95;;;;;;;18.47;63.17;100665.77;1714532;82;21358;-74
2022/04/26 11:14:20;;;;;;;7.15;6.50;;;;;;;18.64;63.10;100673.09;1709451;82;21102;-75
2022/04/26 11:16:56;;;;;;;8.60;6.80;;;;;;;18.87;62.19;100675.11;1718802;82;21237;-74
2022/04/26 11:19:29;;;;;;;7.22;5.95;;;;;;;19.05;62.00;100674.33;1717338;82;21014;-74
2022/04/26 11:22:05;;;;;;;7.85;6.00;;;;;;;19.19;61.45;100670.72;1713539;82;21060;-78
2022/04/26 11:30:08;;;;;;;7.25;5.87;;;;;;;19.79;59.85;100666.09;1716460;82;21182;-75
2022/04/26 11:32:43;;;;;;;;;;;;;;;20.07;59.71;100668.58;1718805;82;22138;-77
2022/04/26 11:35:21;;;;;;;7.55;5.85;;;;;;;20.19;58.40;100674.33;1714643;82;20443;-73
2022/04/26 11:37:53;;;;;;;6.92;5.75;;;;;;;20.36;58.81;100669.94;1717941;82;21068;-76
2022/04/26 11:40:31;;;;;;;6.25;5.60;;;;;;;20.02;58.09;100673.74;1712432;83;21094;-78
2022/04/26 11:43:01;;;;;;;5.53;4.72;;;;;;;19.57;57.65;100680.02;1718469;82;22005;-80
2022/04/26 11:45:30;;;;;;;7.55;5.58;;;;;;;19.15;57.59;100678.06;1682449;82;21051;-83
2022/04/26 11:47:57;;;;;;;8.90;6.23;;;;;;;19.02;57.62;100682.50;1707523;82;21054;-76
2022/04/26 11:50:29;;;;;;;7.25;5.70;;;;;;;19.15;57.79;100678.06;1702261;82;21722;-83
2022/04/26 11:53:08;;;;;;;8.78;5.87;;;;;;;19.48;57.51;100683.34;1714524;82;21062;-75
2022/04/26 11:55:38;;;;;;;7.53;5.62;;;;;;;19.81;56.90;100681.47;1687397;82;21183;-80
2022/04/26 11:58:16;;;;;;;5.50;5.00;;;;;;;20.05;56.35;100677.99;1658127;82;21087;-77
2022/04/26 12:01:15;;;;;;;5.20;4.65;;;;;;;20.27;56.24;100675.47;1691969;82;21051;-77
2022/04/26 12:03:53;;;;;;;5.75;5.25;;;;;;;20.69;55.91;100673.76;1726599;82;21004;-73
2022/04/26 12:06:27;;;;;;;7.00;5.65;;;;;;;20.72;54.16;100679.70;1699560;83;21006;-73
2022/04/26 12:09:01;;;;;;;7.17;6.47;;;;;;;20.56;54.34;100672.97;1694542;84;22040;-74
2022/04/26 12:11:35;;;;;;;6.75;6.15;;;;;;;20.29;53.83;100674.03;1699162;83;22408;-74
2022/04/26 12:14:16;;;;;;;5.83;4.97;;;;;;;20.39;53.95;100670.20;1701392;84;21529;-73
2022/04/26 12:16:49;;;;;;;6.92;5.95;;;;;;;20.53;53.89;100670.05;1703190;83;21061;-73
2022/04/26 12:19:18;;;;;;;5.58;5.08;;;;;;;20.49;53.36;100674.73;1705029;84;21049;-75
2022/04/26 12:21:55;;;;;;;6.00;5.40;;;;;;;20.20;52.84;100667.58;1705498;83;21119;-75
2022/04/26 12:24:29;;;;;;;5.95;5.35;;;;;;;20.18;52.63;100666.83;1701746;82;21174;-79
2022/04/26 12:27:05;;;;;;;6.78;4.95;;;;;;;20.41;52.27;100666.46;1717727;82;21509;-75
2022/04/26 12:29:40;;;;;;;5.78;4.87;;;;;;;20.56;52.00;100660.98;1720362;82;21087;-76
2022/04/26 12:32:28;;;;;;;5.58;4.85;;;;;;;20.99;52.47;100664.42;1728880;82;21056;-76
2022/04/26 12:34:58;;;;;;;6.72;5.00;;;;;;;21.38;51.65;100661.84;1723632;82;21143;-74
2022/04/26 12:37:29;;;;;;;7.65;6.85;;;;;;;21.37;50.58;100662.33;1720661;82;21103;-75
2022/04/26 12:40:06;;;;;;;4.90;4.03;;;;;;;21.32;50.41;100662.30;1725324;82;21078;-75
2022/04/26 12:42:39;;;;;;;5.80;4.30;;;;;;;21.06;49.93;100666.50;1699994;82;21647;-77
2022/04/26 12:45:21;;;;;;;5.45;4.90;;;;;;;20.68;49.67;100666.26;1698750;82;21151;-77
2022/04/26 12:50:54;;;;;;;4.45;4.00;;;;;;;21.06;50.16;100654.97;1726086;82;21029;-76
2022/04/26 12:53:32;;;;;;;4.45;4.05;;;;;;;21.50;50.25;100658.69;1725413;82;21280;-77
2022/04/26 12:56:10;;;;;;;4.50;3.80;;;;;;;21.61;48.78;100657.36;1732845;82;21122;-76
2022/04/26 12:58:40;;;;;;;4.80;3.97;;;;;;;21.49;48.28;100655.67;1723889;82;21076;-76
2022/04/26 13:01:08;;;;;;;3.72;3.40;;;;;;;21.64;48.15;100657.60;1726832;82;21182;-76
2022/04/26 13:03:37;;;;;;;4.30;3.90;;;;;;;21.99;48.07;100638.28;1694022;82;21076;-76
2022/04/26 13:06:17;;;;;;;4.70;3.10;;;;;;;22.37;47.92;100642.34;1689127;82;21218;-76
2022/04/26 13:08:48;;;;;;;4.78;3.60;;;;;;;22.45;46.69;100639.88;1684838;82;21023;-76
2022/04/26 13:11:18;;;;;;;3.55;3.22;;;;;;;22.19;46.20;100639.84;1702101;82;21030;-76
2022/04/26 13:13:49;;;;;;;3.80;3.40;;;;;;;22.18;45.79;100641.66;1722663;82;21131;-80
2022/04/26 13:16:18;;;;;;;3.42;3.12;;;;;;;21.83;45.37;100635.15;1730019;82;21513;-76
2022/04/26 13:18:47;;;;;;;5.22;3.22;;;;;;;21.28;44.59;100640.34;1725841;82;21028;-77
2022/04/26 13:21:14;;;;;;;4.42;3.47;;;;;;;20.69;44.98;100641.80;1727613;82;21083;-75
2022/04/26 13:23:43;;;;;;;4.28;3.52;;;;;;;20.24;44.85;100639.77;1725508;82;21011;-76
2022/04/26 13:26:11;;;;;;;4.03;3.60;;;;;;;19.90;45.52;100636.06;1733313;82;21113;-75
2022/04/26 13:28:39;;;;;;;5.17;3.62;;;;;;;19.85;45.97;100638.20;1726365;82;21029;-76
2022/04/26 13:31:06;;;;;;;3.87;3.45;;;;;;;19.72;45.99;100639.55;1728529;82;21036;-77
2022/04/26 13:33:33;;;;;;;4.42;3.92;;;;;;;19.53;46.01;100633.81;1734693;82;21104;-74
2022/04/26 13:36:00;;;;;;;4.90;3.50;;;;;;;19.52;46.31;100638.28;1731331;82;20989;-76
2022/04/26 13:38:28;;;;;;;3.90;3.60;;;;;;;19.64;46.36;100630.39;1730177;82;21514;-76
2022/04/26 13:40:59;;;;;;;3.90;2.98;;;;;;;19.76;46.43;100633.52;1729655;82;21589;-76
2022/04/26 13:43:24;;;;;;;4.42;2.90;;;;;;;19.76;45.99;100630.86;1733293;82;21005;-76
2022/04/26 13:45:51;;;;;;;8.28;3.55;;;;;;;19.81;46.49;100634.05;1730595;82;20989;-76
2022/04/26 13:48:18;;;;;;;10.63;3.10;;;;;;;19.88;46.31;100631.33;1727407;82;21082;-76
2022/04/26 13:50:45;;;;;;;4.20;3.10;;;;;;;19.88;45.66;100627.83;1732007;82;21169;-76
2022/04/26 13:53:13;;;;;;;3.58;3.12;;;;;;;20.08;45.94;100625.03;1730564;82;21640;-76
2022/04/26 13:55:40;;;;;;;3.72;3.17;;;;;;;20.41;45.97;100628.34;1727292;82;21473;-76
2022/04/26 13:58:10;;;;;;;4.08;3.00;;;;;;;20.83;45.50;100629.61;1717548;82;21056;-76
2022/04/26 14:00:36;;;;;;;2.70;2.45;;;;;;;21.12;45.02;100627.37;1720078;82;21379;-76
2022/04/26 14:03:04;;;;;;;4.28;2.72;;;;;;;20.67;43.79;100627.73;1720934;82;21137;-76
2022/04/26 14:05:31;;;;;;;5.30;3.50;;;;;;;20.36;43.71;100622.51;1729824;82;22024;-76
2022/04/26 14:07:58;;;;;;;5.47;2.90;;;;;;;19.74;42.81;100626.16;1722769;82;21059;-76
2022/04/26 14:10:25;;;;;;;3.52;3.00;;;;;;;19.15;43.22;100626.25;1704510;82;21572;-76
2022/04/26 14:12:55;;;;;;;3.75;2.77;;;;;;;18.74;44.10;100630.41;1690604;82;21093;-77
2022/04/26 14:23:48;;;;;;;2.55;2.35;;;;;;;17.72;44.24;100629.94;1718111;82;21005;-75
2022/04/26 14:26:16;;;;;;;2.77;2.40;;;;;;;17.53;44.62;100630.23;1720147;82;21076;-76
2022/04/26 14:28:44;;;;;;;2.17;1.82;;;;;;;17.52;44.99;100631.20;1711890;82;21106;-75
2022/04/26 14:31:11;;;;;;;2.92;1.92;;;;;;;17.92;45.51;100632.20;1731160;82;21076;-75
2022/04/26 14:33:38;;;;;;;2.85;2.12;;;;;;;18.41;44.54;100630.34;1726110;82;21056;-76
2022/04/26 14:36:05;;;;;;;2.22;1.72;;;;;;;18.48;43.93;100627.67;1727008;82;21677;-76
2022/04/26 14:38:32;;;;;;;3.33;2.42;;;;;;;18.43;43.77;100621.81;1720850;82;21530;-75
2022/04/26 14:40:59;;;;;;;3.70;2.08;;;;;;;18.53;43.76;100622.52;1728315;82;21126;-75
2022/04/26 14:43:26;;;;;;;2.95;2.17;;;;;;;18.84;44.00;100625.31;1728948;82;21006;-76
2022/04/26 14:45:55;;;;;;;4.30;1.98;;;;;;;19.32;44.10;100621.08;1730056;82;21080;-75
2022/04/26 14:48:23;;;;;;;3.10;2.15;;;;;;;19.69;43.74;100616.33;1708150;82;21036;-75
2022/04/26 14:50:50;;;;;;;3.65;2.08;;;;;;;20.05;43.27;100622.11;1722724;82;21043;-75
2022/04/26 14:53:18;;;;;;;2.35;1.90;;;;;;;20.39;42.93;100620.46;1720520;82;22167;-75
2022/04/26 14:55:45;;;;;;;3.47;2.25;;;;;;;20.78;42.89;100624.27;1724063;82;21048;-76
2022/04/26 14:58:14;;;;;;;2.72;2.22;;;;;;;21.10;42.25;100615.98;1724915;82;20999;-75
2022/04/26 15:00:42;;;;;;;3.20;2.33;;;;;;;21.37;42.16;100613.01;1728020;82;21509;-77
2022/04/26 15:03:09;;;;;;;2.65;2.15;;;;;;;21.73;41.81;100620.88;1729457;82;20989;-76
2022/04/26 15:05:36;;;;;;;4.80;2.30;;;;;;;21.86;40.99;100611.38;1735008;82;21190;-75
2022/04/26 15:10:52;;;;;;;3.02;2.17;;;;;;;22.31;40.52;100614.81;1720884;82;21013;-75
2022/04/26 15:18:53;;;;;;;3.10;2.30;;;;;;;22.45;39.48;100611.00;1725299;82;21683;-77
2022/04/26 15:21:20;;;;;;;2.72;2.30;;;;;;;22.34;39.43;100614.55;1728974;82;21590;-77
2022/04/26 15:23:47;;;;;;;3.05;2.08;;;;;;;22.31;39.21;100611.27;1727995;82;21013;-75
2022/04/26 15:26:15;;;;;;;4.00;1.92;;;;;;;22.39;39.44;100610.14;1730238;82;21052;-75
2022/04/26 15:28:44;;;;;;;3.17;1.47;;;;;;;22.42;39.01;100608.09;1714341;82;21376;-76
2022/04/26 15:31:16;;;;;;;1.90;1.60;;;;;;;22.62;38.94;100609.58;1707043;82;21170;-76
2022/04/26 15:33:43;;;;;;;3.90;2.30;;;;;;;22.75;38.29;100611.55;1697913;82;21640;-75
2022/04/26 15:36:11;;;;;;;2.45;2.25;;;;;;;22.85;38.38;100615.63;1681034;82;21036;-75
2022/04/26 15:38:39;;;;;;;2.55;2.08;;;;;;;22.89;38.35;100613.91;1728421;82;20941;-76
2022/04/26 15:41:06;;;;;;;2.77;2.58;;;;;;;23.11;38.03;100617.42;1706061;82;21043;-76
2022/04/26 15:43:36;;;;;;;2.98;2.50;;;;;;;23.30;37.22;100611.33;1708125;82;21234;-75
2022/04/26 15:46:09;;;;;;;2.90;2.58;;;;;;;23.29;36.68;100615.00;1708709;81;21107;-75
2022/04/26 15:48:44;;;;;;;3.25;2.30;;;;;;;23.24;36.57;100614.05;1699094;82;21043;-75
2022/04/26 15:51:09;;;;;;;3.80;2.20;;;;;;;23.24;36.42;100614.05;1703574;82;21036;-75
2022/04/26 15:53:36;;;;;;;3.90;3.00;;;;;;;23.20;36.26;100609.97;1713388;82;21051;-75